Glenwood, Canada
Current Conditions -  °F | °C
As of 2:00 PM on Friday 21 Nov 2014 (Local Time) from CYQX Reporting Station
Broken Clouds Broken Clouds  
Wind Chill: 35°   Ceiling: 3200
Heat Index: 43°   Visibility: 20mi
Dew Point: 39°   Wind: 15mph
Humidity: 87%   Direction: 210°SSW
Pressure: 29.35"   Gusts: 22mph
Location:  49°N, 54.88°W
Report Text: CYQX 211700Z 21013G19KT 20SM FEW018 BKN032 BKN170 BKN260 06/04 A2935 RMK CU1SC4AC1CI1 SLP944
Loading
Personal Weather Stations






























Interactive Weather Map New forecast layout! Learn more

10-Day Weather Forecast

Advertisements
Track Severe Weather on mobile